sensor_id;sensor_type;location;lat;lon;timestamp;temperature;humidity
8856;DHT22;4464;50.882;4.730;2023-09-30T00:02:14;12.50;99.90
8856;DHT22;4464;50.882;4.730;2023-09-30T00:04:40;12.40;99.90
8856;DHT22;4464;50.882;4.730;2023-09-30T00:07:08;12.40;99.90
8856;DHT22;4464;50.882;4.730;2023-09-30T00:09:34;12.50;99.90
8856;DHT22;4464;50.882;4.730;2023-09-30T00:11:59;12.50;99.90
8856;DHT22;4464;50.882;4.730;2023-09-30T00:14:28;12.40;99.90
8856;DHT22;4464;50.882;4.730;2023-09-30T00:16:54;12.40;99.90
8856;DHT22;4464;50.882;4.730;2023-09-30T00:19:20;12.40;99.90
8856;DHT22;4464;50.882;4.730;2023-09-30T00:21:48;12.40;99.90
8856;DHT22;4464;50.882;4.730;2023-09-30T00:24:14;12.30;99.90
8856;DHT22;4464;50.882;4.730;2023-09-30T00:26:40;12.30;99.90
8856;DHT22;4464;50.882;4.730;2023-09-30T00:29:05;12.20;99.90
8856;DHT22;4464;50.882;4.730;2023-09-30T00:31:31;12.30;99.90
8856;DHT22;4464;50.882;4.730;2023-09-30T00:33:58;12.20;99.90
8856;DHT22;4464;50.882;4.730;2023-09-30T00:36:23;12.20;99.90
8856;DHT22;4464;50.882;4.730;2023-09-30T00:38:49;12.30;99.90
8856;DHT22;4464;50.882;4.730;2023-09-30T00:41:20;12.30;99.90
8856;DHT22;4464;50.882;4.730;2023-09-30T00:43:48;12.30;99.90
8856;DHT22;4464;50.882;4.730;2023-09-30T00:46:31;12.30;99.90
8856;DHT22;4464;50.882;4.730;2023-09-30T00:48:59;12.20;99.90
8856;DHT22;4464;50.882;4.730;2023-09-30T00:51:26;12.30;99.90
8856;DHT22;4464;50.882;4.730;2023-09-30T00:53:58;12.20;99.90
8856;DHT22;4464;50.882;4.730;2023-09-30T00:56:26;12.30;99.90
8856;DHT22;4464;50.882;4.730;2023-09-30T00:58:52;12.30;99.90
8856;DHT22;4464;50.882;4.730;2023-09-30T01:01:21;12.30;99.90
8856;DHT22;4464;50.882;4.730;2023-09-30T01:03:50;12.30;99.90
8856;DHT22;4464;50.882;4.730;2023-09-30T01:06:15;12.20;99.90
8856;DHT22;4464;50.882;4.730;2023-09-30T01:08:41;12.30;99.90
8856;DHT22;4464;50.882;4.730;2023-09-30T01:11:10;12.30;99.90
8856;DHT22;4464;50.882;4.730;2023-09-30T01:13:37;12.40;99.90
8856;DHT22;4464;50.882;4.730;2023-09-30T01:16:07;12.40;99.90
8856;DHT22;4464;50.882;4.730;2023-09-30T01:18:39;12.40;99.90
8856;DHT22;4464;50.882;4.730;2023-09-30T01:21:10;12.50;99.90
8856;DHT22;4464;50.882;4.730;2023-09-30T01:23:36;12.50;99.90
8856;DHT22;4464;50.882;4.730;2023-09-30T01:26:03;12.60;99.90
8856;DHT22;4464;50.882;4.730;2023-09-30T01:28:29;12.50;99.90
8856;DHT22;4464;50.882;4.730;2023-09-30T01:30:59;12.50;99.90
8856;DHT22;4464;50.882;4.730;2023-09-30T01:33:25;12.50;99.90
8856;DHT22;4464;50.882;4.730;2023-09-30T01:35:50;12.60;99.90
8856;DHT22;4464;50.882;4.730;2023-09-30T01:38:16;12.60;99.90
8856;DHT22;4464;50.882;4.730;2023-09-30T01:40:42;12.50;99.90
8856;DHT22;4464;50.882;4.730;2023-09-30T01:43:08;12.50;99.90
8856;DHT22;4464;50.882;4.730;2023-09-30T01:45:33;12.50;99.90
8856;DHT22;4464;50.882;4.730;2023-09-30T01:48:01;12.50;99.90
8856;DHT22;4464;50.882;4.730;2023-09-30T01:50:30;12.40;99.90
8856;DHT22;4464;50.882;4.730;2023-09-30T01:52:59;12.30;99.90
8856;DHT22;4464;50.882;4.730;2023-09-30T01:55:24;12.40;99.90
8856;DHT22;4464;50.882;4.730;2023-09-30T01:57:53;12.40;99.90
8856;DHT22;4464;50.882;4.730;2023-09-30T02:00:18;12.40;99.90
8856;DHT22;4464;50.882;4.730;2023-09-30T02:02:44;12.40;99.90
8856;DHT22;4464;50.882;4.730;2023-09-30T02:05:10;12.50;99.90
8856;DHT22;4464;50.882;4.730;2023-09-30T02:07:35;12.50;99.90
8856;DHT22;4464;50.882;4.730;2023-09-30T02:10:01;12.60;99.90
8856;DHT22;4464;50.882;4.730;2023-09-30T02:12:29;12.50;99.90
8856;DHT22;4464;50.882;4.730;2023-09-30T02:14:55;12.50;99.90
8856;DHT22;4464;50.882;4.730;2023-09-30T02:17:23;12.50;99.90
8856;DHT22;4464;50.882;4.730;2023-09-30T02:19:49;12.50;99.90
8856;DHT22;4464;50.882;4.730;2023-09-30T02:22:15;12.40;99.90
8856;DHT22;4464;50.882;4.730;2023-09-30T02:24:43;12.50;99.90
8856;DHT22;4464;50.882;4.730;2023-09-30T02:27:11;12.40;99.90
8856;DHT22;4464;50.882;4.730;2023-09-30T02:29:37;12.30;99.90
8856;DHT22;4464;50.882;4.730;2023-09-30T02:32:02;12.30;99.90
8856;DHT22;4464;50.882;4.730;2023-09-30T02:34:30;12.30;99.90
8856;DHT22;4464;50.882;4.730;2023-09-30T02:36:58;12.30;99.90
8856;DHT22;4464;50.882;4.730;2023-09-30T02:39:27;12.30;99.90
8856;DHT22;4464;50.882;4.730;2023-09-30T02:41:53;12.20;99.90
8856;DHT22;4464;50.882;4.730;2023-09-30T02:44:19;12.30;99.90
8856;DHT22;4464;50.882;4.730;2023-09-30T02:46:45;12.30;99.90
8856;DHT22;4464;50.882;4.730;2023-09-30T02:49:15;12.30;99.90
8856;DHT22;4464;50.882;4.730;2023-09-30T02:51:41;12.20;99.90
8856;DHT22;4464;50.882;4.730;2023-09-30T02:54:09;12.20;99.90
8856;DHT22;4464;50.882;4.730;2023-09-30T02:56:37;12.10;99.90
8856;DHT22;4464;50.882;4.730;2023-09-30T02:59:03;12.10;99.90
8856;DHT22;4464;50.882;4.730;2023-09-30T03:01:32;12.10;99.90
8856;DHT22;4464;50.882;4.730;2023-09-30T03:03:57;12.10;99.90
8856;DHT22;4464;50.882;4.730;2023-09-30T03:06:28;12.10;99.90
8856;DHT22;4464;50.882;4.730;2023-09-30T03:08:54;12.10;99.90
8856;DHT22;4464;50.882;4.730;2023-09-30T03:11:19;12.10;99.90
8856;DHT22;4464;50.882;4.730;2023-09-30T03:13:47;12.10;99.90
8856;DHT22;4464;50.882;4.730;2023-09-30T03:16:16;12.10;99.90
8856;DHT22;4464;50.882;4.730;2023-09-30T03:18:41;12.00;99.90
8856;DHT22;4464;50.882;4.730;2023-09-30T03:21:14;12.00;99.90
8856;DHT22;4464;50.882;4.730;2023-09-30T03:23:40;12.00;99.90
8856;DHT22;4464;50.882;4.730;2023-09-30T03:26:08;12.00;99.90
8856;DHT22;4464;50.882;4.730;2023-09-30T03:28:38;12.00;99.90
8856;DHT22;4464;50.882;4.730;2023-09-30T03:31:09;12.10;99.90
8856;DHT22;4464;50.882;4.730;2023-09-30T03:33:38;12.10;99.90
8856;DHT22;4464;50.882;4.730;2023-09-30T03:36:06;12.10;99.90
8856;DHT22;4464;50.882;4.730;2023-09-30T03:38:34;12.10;99.90
8856;DHT22;4464;50.882;4.730;2023-09-30T03:41:03;12.10;99.90
8856;DHT22;4464;50.882;4.730;2023-09-30T03:43:29;12.00;99.90
8856;DHT22;4464;50.882;4.730;2023-09-30T03:45:55;12.00;99.90
8856;DHT22;4464;50.882;4.730;2023-09-30T03:48:22;12.10;99.90
8856;DHT22;4464;50.882;4.730;2023-09-30T03:50:48;12.00;99.90
8856;DHT22;4464;50.882;4.730;2023-09-30T03:53:14;12.00;99.90
8856;DHT22;4464;50.882;4.730;2023-09-30T03:55:40;12.00;99.90
8856;DHT22;4464;50.882;4.730;2023-09-30T03:58:07;12.00;99.90
8856;DHT22;4464;50.882;4.730;2023-09-30T04:00:33;12.00;99.90
8856;DHT22;4464;50.882;4.730;2023-09-30T04:02:58;11.90;99.90
8856;DHT22;4464;50.882;4.730;2023-09-30T04:05:25;11.90;99.90
8856;DHT22;4464;50.882;4.730;2023-09-30T04:07:57;11.90;99.90
8856;DHT22;4464;50.882;4.730;2023-09-30T04:10:23;11.90;99.90
8856;DHT22;4464;50.882;4.730;2023-09-30T04:12:49;11.80;99.90
8856;DHT22;4464;50.882;4.730;2023-09-30T04:15:17;11.80;99.90
8856;DHT22;4464;50.882;4.730;2023-09-30T04:17:44;11.90;99.90
8856;DHT22;4464;50.882;4.730;2023-09-30T04:20:12;11.90;99.90
8856;DHT22;4464;50.882;4.730;2023-09-30T04:22:48;11.80;99.90
8856;DHT22;4464;50.882;4.730;2023-09-30T04:25:17;11.80;99.90
8856;DHT22;4464;50.882;4.730;2023-09-30T04:27:46;11.80;99.90
8856;DHT22;4464;50.882;4.730;2023-09-30T04:30:13;11.70;99.90
8856;DHT22;4464;50.882;4.730;2023-09-30T04:32:41;11.70;99.90
8856;DHT22;4464;50.882;4.730;2023-09-30T04:35:07;11.60;99.90
8856;DHT22;4464;50.882;4.730;2023-09-30T04:37:37;11.60;99.90
8856;DHT22;4464;50.882;4.730;2023-09-30T04:40:09;11.50;99.90
8856;DHT22;4464;50.882;4.730;2023-09-30T04:42:46;11.50;99.90
8856;DHT22;4464;50.882;4.730;2023-09-30T04:45:17;11.50;99.90
8856;DHT22;4464;50.882;4.730;2023-09-30T04:47:47;11.60;99.90
8856;DHT22;4464;50.882;4.730;2023-09-30T04:50:16;11.50;99.90
8856;DHT22;4464;50.882;4.730;2023-09-30T04:52:43;11.50;99.90
8856;DHT22;4464;50.882;4.730;2023-09-30T04:55:13;11.50;99.90
8856;DHT22;4464;50.882;4.730;2023-09-30T04:57:43;11.50;99.90
8856;DHT22;4464;50.882;4.730;2023-09-30T05:00:14;11.50;99.90
8856;DHT22;4464;50.882;4.730;2023-09-30T05:02:40;11.50;99.90
8856;DHT22;4464;50.882;4.730;2023-09-30T05:05:08;11.50;99.90
8856;DHT22;4464;50.882;4.730;2023-09-30T05:07:34;11.50;99.90
8856;DHT22;4464;50.882;4.730;2023-09-30T05:10:00;11.50;99.90
8856;DHT22;4464;50.882;4.730;2023-09-30T05:12:26;11.50;99.90
8856;DHT22;4464;50.882;4.730;2023-09-30T05:14:51;11.50;99.90
8856;DHT22;4464;50.882;4.730;2023-09-30T05:17:20;11.50;99.90
8856;DHT22;4464;50.882;4.730;2023-09-30T05:19:48;11.60;99.90
8856;DHT22;4464;50.882;4.730;2023-09-30T05:22:16;11.60;99.90
8856;DHT22;4464;50.882;4.730;2023-09-30T05:24:47;11.70;99.90
8856;DHT22;4464;50.882;4.730;2023-09-30T05:27:13;11.60;99.90
8856;DHT22;4464;50.882;4.730;2023-09-30T05:29:38;11.60;99.90
8856;DHT22;4464;50.882;4.730;2023-09-30T05:32:04;11.60;99.90
8856;DHT22;4464;50.882;4.730;2023-09-30T05:34:34;11.70;99.90
8856;DHT22;4464;50.882;4.730;2023-09-30T05:37:00;11.70;99.90
8856;DHT22;4464;50.882;4.730;2023-09-30T05:39:26;11.80;99.90
8856;DHT22;4464;50.882;4.730;2023-09-30T05:41:54;11.80;99.90
8856;DHT22;4464;50.882;4.730;2023-09-30T05:44:21;11.80;99.90
8856;DHT22;4464;50.882;4.730;2023-09-30T05:46:47;11.80;99.90
8856;DHT22;4464;50.882;4.730;2023-09-30T05:49:13;11.70;99.90
8856;DHT22;4464;50.882;4.730;2023-09-30T05:51:42;11.70;99.90
8856;DHT22;4464;50.882;4.730;2023-09-30T05:54:08;11.60;99.90
8856;DHT22;4464;50.882;4.730;2023-09-30T05:56:37;11.70;99.90
8856;DHT22;4464;50.882;4.730;2023-09-30T05:59:07;11.70;99.90
8856;DHT22;4464;50.882;4.730;2023-09-30T06:01:35;11.70;99.90
8856;DHT22;4464;50.882;4.730;2023-09-30T06:04:03;11.70;99.90
8856;DHT22;4464;50.882;4.730;2023-09-30T06:06:32;11.70;99.90
8856;DHT22;4464;50.882;4.730;2023-09-30T06:09:00;11.70;99.90
8856;DHT22;4464;50.882;4.730;2023-09-30T06:11:26;11.70;99.90
8856;DHT22;4464;50.882;4.730;2023-09-30T06:13:54;11.80;99.90
8856;DHT22;4464;50.882;4.730;2023-09-30T06:16:24;11.80;99.90
8856;DHT22;4464;50.882;4.730;2023-09-30T06:18:55;11.90;99.90
8856;DHT22;4464;50.882;4.730;2023-09-30T06:21:27;11.90;99.90
8856;DHT22;4464;50.882;4.730;2023-09-30T06:23:57;11.90;99.90
8856;DHT22;4464;50.882;4.730;2023-09-30T06:26:22;11.90;99.90
8856;DHT22;4464;50.882;4.730;2023-09-30T06:28:54;12.00;99.90
8856;DHT22;4464;50.882;4.730;2023-09-30T06:31:26;12.00;99.90
8856;DHT22;4464;50.882;4.730;2023-09-30T06:33:52;12.00;99.90
8856;DHT22;4464;50.882;4.730;2023-09-30T06:36:18;12.00;99.90
8856;DHT22;4464;50.882;4.730;2023-09-30T06:38:44;12.10;99.90
8856;DHT22;4464;50.882;4.730;2023-09-30T06:41:16;12.10;99.90
8856;DHT22;4464;50.882;4.730;2023-09-30T06:43:42;12.10;99.90
8856;DHT22;4464;50.882;4.730;2023-09-30T06:46:09;12.10;99.90
8856;DHT22;4464;50.882;4.730;2023-09-30T06:48:35;12.20;99.90
8856;DHT22;4464;50.882;4.730;2023-09-30T06:51:03;12.20;99.90
8856;DHT22;4464;50.882;4.730;2023-09-30T06:53:29;12.30;99.90
8856;DHT22;4464;50.882;4.730;2023-09-30T06:55:58;12.40;99.90
8856;DHT22;4464;50.882;4.730;2023-09-30T06:58:23;12.40;99.90
8856;DHT22;4464;50.882;4.730;2023-09-30T07:00:52;12.40;99.90
8856;DHT22;4464;50.882;4.730;2023-09-30T07:03:21;12.40;99.90
8856;DHT22;4464;50.882;4.730;2023-09-30T07:05:47;12.40;99.90
8856;DHT22;4464;50.882;4.730;2023-09-30T07:08:18;12.40;99.90
8856;DHT22;4464;50.882;4.730;2023-09-30T07:10:48;12.40;99.90
8856;DHT22;4464;50.882;4.730;2023-09-30T07:13:18;12.60;99.90
8856;DHT22;4464;50.882;4.730;2023-09-30T07:15:44;12.60;99.90
8856;DHT22;4464;50.882;4.730;2023-09-30T07:18:10;12.50;99.90
8856;DHT22;4464;50.882;4.730;2023-09-30T07:20:37;12.70;99.90
8856;DHT22;4464;50.882;4.730;2023-09-30T07:23:05;12.80;99.90
8856;DHT22;4464;50.882;4.730;2023-09-30T07:25:31;12.90;99.90
8856;DHT22;4464;50.882;4.730;2023-09-30T07:28:02;13.00;99.90
8856;DHT22;4464;50.882;4.730;2023-09-30T07:30:28;13.00;99.90
8856;DHT22;4464;50.882;4.730;2023-09-30T07:32:54;13.00;99.90
8856;DHT22;4464;50.882;4.730;2023-09-30T07:35:20;13.10;99.90
8856;DHT22;4464;50.882;4.730;2023-09-30T07:37:45;13.30;99.90
8856;DHT22;4464;50.882;4.730;2023-09-30T07:40:12;13.40;99.90
8856;DHT22;4464;50.882;4.730;2023-09-30T07:42:38;13.50;99.90
8856;DHT22;4464;50.882;4.730;2023-09-30T07:45:04;13.70;99.90
8856;DHT22;4464;50.882;4.730;2023-09-30T07:47:33;14.10;99.90
8856;DHT22;4464;50.882;4.730;2023-09-30T07:50:00;14.30;99.90
8856;DHT22;4464;50.882;4.730;2023-09-30T07:52:30;14.70;99.90
8856;DHT22;4464;50.882;4.730;2023-09-30T07:54:58;15.10;99.90
8856;DHT22;4464;50.882;4.730;2023-09-30T07:57:24;15.60;99.90
8856;DHT22;4464;50.882;4.730;2023-09-30T07:59:49;15.80;99.90
8856;DHT22;4464;50.882;4.730;2023-09-30T08:02:17;16.10;99.90
8856;DHT22;4464;50.882;4.730;2023-09-30T08:04:48;16.40;99.90
8856;DHT22;4464;50.882;4.730;2023-09-30T08:07:13;16.90;99.90
8856;DHT22;4464;50.882;4.730;2023-09-30T08:09:41;17.40;99.90
8856;DHT22;4464;50.882;4.730;2023-09-30T08:12:07;17.90;99.90
8856;DHT22;4464;50.882;4.730;2023-09-30T08:14:35;18.30;99.90
8856;DHT22;4464;50.882;4.730;2023-09-30T08:17:00;18.50;99.90
8856;DHT22;4464;50.882;4.730;2023-09-30T08:19:30;18.60;99.90
8856;DHT22;4464;50.882;4.730;2023-09-30T08:21:57;18.70;99.90
8856;DHT22;4464;50.882;4.730;2023-09-30T08:24:22;18.80;99.90
8856;DHT22;4464;50.882;4.730;2023-09-30T08:26:50;19.00;99.90
8856;DHT22;4464;50.882;4.730;2023-09-30T08:29:17;18.70;99.90
8856;DHT22;4464;50.882;4.730;2023-09-30T08:31:42;18.90;99.90
8856;DHT22;4464;50.882;4.730;2023-09-30T08:34:10;19.10;99.90
8856;DHT22;4464;50.882;4.730;2023-09-30T08:36:36;19.20;99.90
8856;DHT22;4464;50.882;4.730;2023-09-30T08:39:02;19.20;99.90
8856;DHT22;4464;50.882;4.730;2023-09-30T08:41:34;19.40;99.90
8856;DHT22;4464;50.882;4.730;2023-09-30T08:44:01;19.60;99.90
8856;DHT22;4464;50.882;4.730;2023-09-30T08:46:31;19.80;99.90
8856;DHT22;4464;50.882;4.730;2023-09-30T08:49:01;20.20;99.90
8856;DHT22;4464;50.882;4.730;2023-09-30T08:51:29;20.20;99.90
8856;DHT22;4464;50.882;4.730;2023-09-30T08:53:59;20.60;99.90
8856;DHT22;4464;50.882;4.730;2023-09-30T08:56:30;21.20;99.90
8856;DHT22;4464;50.882;4.730;2023-09-30T08:58:59;21.40;99.90
8856;DHT22;4464;50.882;4.730;2023-09-30T09:01:31;21.40;99.90
8856;DHT22;4464;50.882;4.730;2023-09-30T09:03:57;21.60;99.90
8856;DHT22;4464;50.882;4.730;2023-09-30T09:06:28;21.70;99.90
8856;DHT22;4464;50.882;4.730;2023-09-30T09:09:16;22.20;99.90
8856;DHT22;4464;50.882;4.730;2023-09-30T09:11:48;22.40;99.90
8856;DHT22;4464;50.882;4.730;2023-09-30T09:14:18;22.70;99.90
8856;DHT22;4464;50.882;4.730;2023-09-30T09:16:54;23.10;99.90
8856;DHT22;4464;50.882;4.730;2023-09-30T09:19:23;23.50;99.90
8856;DHT22;4464;50.882;4.730;2023-09-30T09:21:57;23.40;99.90
8856;DHT22;4464;50.882;4.730;2023-09-30T09:24:34;23.00;99.90
8856;DHT22;4464;50.882;4.730;2023-09-30T09:27:13;22.80;99.90
8856;DHT22;4464;50.882;4.730;2023-09-30T09:29:45;23.60;99.90
8856;DHT22;4464;50.882;4.730;2023-09-30T09:32:17;23.80;99.90
8856;DHT22;4464;50.882;4.730;2023-09-30T09:35:00;23.60;99.90
8856;DHT22;4464;50.882;4.730;2023-09-30T09:37:32;23.70;99.90
8856;DHT22;4464;50.882;4.730;2023-09-30T09:39:58;23.30;99.90
8856;DHT22;4464;50.882;4.730;2023-09-30T09:42:32;23.80;99.90
8856;DHT22;4464;50.882;4.730;2023-09-30T09:45:10;23.80;99.90
8856;DHT22;4464;50.882;4.730;2023-09-30T09:47:36;23.90;99.90
8856;DHT22;4464;50.882;4.730;2023-09-30T09:50:04;24.30;99.90
8856;DHT22;4464;50.882;4.730;2023-09-30T09:52:31;25.20;99.90
8856;DHT22;4464;50.882;4.730;2023-09-30T09:54:59;24.50;99.90
8856;DHT22;4464;50.882;4.730;2023-09-30T09:57:27;25.10;99.90
8856;DHT22;4464;50.882;4.730;2023-09-30T09:59:56;25.20;99.90
8856;DHT22;4464;50.882;4.730;2023-09-30T10:02:28;25.60;99.90
8856;DHT22;4464;50.882;4.730;2023-09-30T10:04:55;24.60;99.90
8856;DHT22;4464;50.882;4.730;2023-09-30T10:07:28;25.10;99.90
8856;DHT22;4464;50.882;4.730;2023-09-30T10:09:56;24.80;99.60
8856;DHT22;4464;50.882;4.730;2023-09-30T10:12:25;23.40;99.90
8856;DHT22;4464;50.882;4.730;2023-09-30T10:14:52;23.40;99.90
8856;DHT22;4464;50.882;4.730;2023-09-30T10:17:18;23.70;99.90
8856;DHT22;4464;50.882;4.730;2023-09-30T10:20:04;23.40;99.90
8856;DHT22;4464;50.882;4.730;2023-09-30T10:22:33;23.30;99.90
8856;DHT22;4464;50.882;4.730;2023-09-30T10:25:00;24.60;99.90
8856;DHT22;4464;50.882;4.730;2023-09-30T10:30:07;26.70;97.70
8856;DHT22;4464;50.882;4.730;2023-09-30T10:35:42;26.90;96.30
8856;DHT22;4464;50.882;4.730;2023-09-30T10:40:53;26.00;97.50
8856;DHT22;4464;50.882;4.730;2023-09-30T10:43:32;26.80;96.80
8856;DHT22;4464;50.882;4.730;2023-09-30T10:46:32;27.40;95.50
8856;DHT22;4464;50.882;4.730;2023-09-30T10:48:54;27.60;95.10
8856;DHT22;4464;50.882;4.730;2023-09-30T10:51:20;28.70;94.00
8856;DHT22;4464;50.882;4.730;2023-09-30T10:53:53;29.00;93.40
8856;DHT22;4464;50.882;4.730;2023-09-30T10:56:23;28.60;92.60
8856;DHT22;4464;50.882;4.730;2023-09-30T10:58:54;27.70;92.70
8856;DHT22;4464;50.882;4.730;2023-09-30T11:01:22;28.30;93.30
8856;DHT22;4464;50.882;4.730;2023-09-30T11:04:02;28.00;93.00
8856;DHT22;4464;50.882;4.730;2023-09-30T11:06:30;27.20;93.60
8856;DHT22;4464;50.882;4.730;2023-09-30T11:09:00;27.30;93.60
8856;DHT22;4464;50.882;4.730;2023-09-30T11:14:02;28.10;92.30
8856;DHT22;4464;50.882;4.730;2023-09-30T11:16:43;27.60;92.80
8856;DHT22;4464;50.882;4.730;2023-09-30T11:19:10;26.80;92.50
8856;DHT22;4464;50.882;4.730;2023-09-30T11:21:36;26.40;92.30
8856;DHT22;4464;50.882;4.730;2023-09-30T11:24:02;27.40;91.90
8856;DHT22;4464;50.882;4.730;2023-09-30T11:26:31;28.30;90.60
8856;DHT22;4464;50.882;4.730;2023-09-30T11:31:45;30.30;86.40
8856;DHT22;4464;50.882;4.730;2023-09-30T11:34:12;30.40;83.60
8856;DHT22;4464;50.882;4.730;2023-09-30T11:36:41;31.00;82.00
8856;DHT22;4464;50.882;4.730;2023-09-30T11:39:29;31.10;81.30
8856;DHT22;4464;50.882;4.730;2023-09-30T11:41:55;31.10;81.90
8856;DHT22;4464;50.882;4.730;2023-09-30T11:44:25;31.90;79.30
8856;DHT22;4464;50.882;4.730;2023-09-30T11:47:00;32.10;78.30
8856;DHT22;4464;50.882;4.730;2023-09-30T11:52:12;32.30;76.60
8856;DHT22;4464;50.882;4.730;2023-09-30T11:54:43;31.40;76.80
8856;DHT22;4464;50.882;4.730;2023-09-30T11:57:16;31.80;77.30
8856;DHT22;4464;50.882;4.730;2023-09-30T11:59:45;31.90;75.50
8856;DHT22;4464;50.882;4.730;2023-09-30T12:02:15;31.90;75.90
8856;DHT22;4464;50.882;4.730;2023-09-30T12:04:43;32.30;74.40
8856;DHT22;4464;50.882;4.730;2023-09-30T12:07:10;32.60;73.90
8856;DHT22;4464;50.882;4.730;2023-09-30T12:09:41;31.70;74.80
8856;DHT22;4464;50.882;4.730;2023-09-30T12:12:07;32.30;75.00
8856;DHT22;4464;50.882;4.730;2023-09-30T12:14:39;32.90;73.50
8856;DHT22;4464;50.882;4.730;2023-09-30T12:17:05;33.40;71.60
8856;DHT22;4464;50.882;4.730;2023-09-30T12:19:30;33.10;70.70
8856;DHT22;4464;50.882;4.730;2023-09-30T12:21:56;32.70;71.30
8856;DHT22;4464;50.882;4.730;2023-09-30T12:24:24;33.00;71.30
8856;DHT22;4464;50.882;4.730;2023-09-30T12:26:52;33.20;70.10
8856;DHT22;4464;50.882;4.730;2023-09-30T12:29:21;33.20;68.80
8856;DHT22;4464;50.882;4.730;2023-09-30T12:31:56;33.60;69.70
8856;DHT22;4464;50.882;4.730;2023-09-30T12:34:22;33.50;69.80
8856;DHT22;4464;50.882;4.730;2023-09-30T12:36:52;32.50;70.40
8856;DHT22;4464;50.882;4.730;2023-09-30T12:39:18;32.10;71.30
8856;DHT22;4464;50.882;4.730;2023-09-30T12:41:49;31.60;72.00
8856;DHT22;4464;50.882;4.730;2023-09-30T12:44:15;30.70;74.30
8856;DHT22;4464;50.882;4.730;2023-09-30T12:46:43;31.20;74.40
8856;DHT22;4464;50.882;4.730;2023-09-30T12:49:10;31.80;71.30
8856;DHT22;4464;50.882;4.730;2023-09-30T12:51:37;31.60;72.70
8856;DHT22;4464;50.882;4.730;2023-09-30T12:54:03;31.70;71.20
8856;DHT22;4464;50.882;4.730;2023-09-30T12:56:30;31.60;72.60
8856;DHT22;4464;50.882;4.730;2023-09-30T12:58:56;31.40;71.60
8856;DHT22;4464;50.882;4.730;2023-09-30T13:01:24;31.00;71.60
8856;DHT22;4464;50.882;4.730;2023-09-30T13:03:50;30.00;73.10
8856;DHT22;4464;50.882;4.730;2023-09-30T13:06:18;30.20;72.30
8856;DHT22;4464;50.882;4.730;2023-09-30T13:08:44;30.50;71.20
8856;DHT22;4464;50.882;4.730;2023-09-30T13:11:10;31.20;70.90
8856;DHT22;4464;50.882;4.730;2023-09-30T13:13:38;31.30;69.80
8856;DHT22;4464;50.882;4.730;2023-09-30T13:16:09;31.10;70.00
8856;DHT22;4464;50.882;4.730;2023-09-30T13:18:37;31.40;69.00
8856;DHT22;4464;50.882;4.730;2023-09-30T13:21:03;32.60;67.50
8856;DHT22;4464;50.882;4.730;2023-09-30T13:23:31;33.20;66.70
8856;DHT22;4464;50.882;4.730;2023-09-30T13:25:57;33.40;65.50
8856;DHT22;4464;50.882;4.730;2023-09-30T13:28:23;32.80;65.30
8856;DHT22;4464;50.882;4.730;2023-09-30T13:30:51;32.90;64.50
8856;DHT22;4464;50.882;4.730;2023-09-30T13:33:19;33.20;66.30
8856;DHT22;4464;50.882;4.730;2023-09-30T13:35:46;32.60;64.40
8856;DHT22;4464;50.882;4.730;2023-09-30T13:38:12;31.80;67.70
8856;DHT22;4464;50.882;4.730;2023-09-30T13:40:38;31.80;68.00
8856;DHT22;4464;50.882;4.730;2023-09-30T13:43:07;29.80;68.50
8856;DHT22;4464;50.882;4.730;2023-09-30T13:45:38;29.10;71.50
8856;DHT22;4464;50.882;4.730;2023-09-30T13:48:06;28.10;74.40
8856;DHT22;4464;50.882;4.730;2023-09-30T13:50:32;27.40;75.80
8856;DHT22;4464;50.882;4.730;2023-09-30T13:53:00;27.30;76.00
8856;DHT22;4464;50.882;4.730;2023-09-30T13:55:26;27.10;77.60
8856;DHT22;4464;50.882;4.730;2023-09-30T13:57:52;27.10;77.70
8856;DHT22;4464;50.882;4.730;2023-09-30T14:00:20;27.10;76.90
8856;DHT22;4464;50.882;4.730;2023-09-30T14:02:49;26.10;77.60
8856;DHT22;4464;50.882;4.730;2023-09-30T14:05:17;26.10;79.00
8856;DHT22;4464;50.882;4.730;2023-09-30T14:07:42;26.30;79.80
8856;DHT22;4464;50.882;4.730;2023-09-30T14:10:09;26.40;79.10
8856;DHT22;4464;50.882;4.730;2023-09-30T14:12:42;27.00;78.10
8856;DHT22;4464;50.882;4.730;2023-09-30T14:15:10;27.40;78.20
8856;DHT22;4464;50.882;4.730;2023-09-30T14:17:36;28.00;76.00
8856;DHT22;4464;50.882;4.730;2023-09-30T14:20:02;29.20;74.50
8856;DHT22;4464;50.882;4.730;2023-09-30T14:22:31;30.10;73.30
8856;DHT22;4464;50.882;4.730;2023-09-30T14:24:57;29.70;72.70
8856;DHT22;4464;50.882;4.730;2023-09-30T14:27:25;29.50;73.80
8856;DHT22;4464;50.882;4.730;2023-09-30T14:29:54;28.80;74.20
8856;DHT22;4464;50.882;4.730;2023-09-30T14:32:19;28.70;74.60
8856;DHT22;4464;50.882;4.730;2023-09-30T14:34:45;28.60;75.30
8856;DHT22;4464;50.882;4.730;2023-09-30T14:37:13;28.80;75.20
8856;DHT22;4464;50.882;4.730;2023-09-30T14:39:39;28.60;74.00
8856;DHT22;4464;50.882;4.730;2023-09-30T14:42:07;28.50;75.10
8856;DHT22;4464;50.882;4.730;2023-09-30T14:44:35;29.30;73.30
8856;DHT22;4464;50.882;4.730;2023-09-30T14:47:04;30.00;71.80
8856;DHT22;4464;50.882;4.730;2023-09-30T14:49:31;30.20;69.90
8856;DHT22;4464;50.882;4.730;2023-09-30T14:51:59;29.80;70.40
8856;DHT22;4464;50.882;4.730;2023-09-30T14:54:24;29.10;71.40
8856;DHT22;4464;50.882;4.730;2023-09-30T14:56:50;29.30;71.60
8856;DHT22;4464;50.882;4.730;2023-09-30T14:59:16;29.70;70.30
8856;DHT22;4464;50.882;4.730;2023-09-30T15:01:44;30.50;70.30
8856;DHT22;4464;50.882;4.730;2023-09-30T15:04:10;30.50;68.00
8856;DHT22;4464;50.882;4.730;2023-09-30T15:06:35;30.30;69.40
8856;DHT22;4464;50.882;4.730;2023-09-30T15:09:02;30.50;68.40
8856;DHT22;4464;50.882;4.730;2023-09-30T15:11:30;30.30;68.00
8856;DHT22;4464;50.882;4.730;2023-09-30T15:13:56;30.00;69.40
8856;DHT22;4464;50.882;4.730;2023-09-30T15:16:25;29.60;70.00
8856;DHT22;4464;50.882;4.730;2023-09-30T15:18:51;29.40;71.00
8856;DHT22;4464;50.882;4.730;2023-09-30T15:21:17;29.30;71.80
8856;DHT22;4464;50.882;4.730;2023-09-30T15:23:45;29.50;71.30
8856;DHT22;4464;50.882;4.730;2023-09-30T15:26:10;29.60;71.00
8856;DHT22;4464;50.882;4.730;2023-09-30T15:28:36;29.60;70.10
8856;DHT22;4464;50.882;4.730;2023-09-30T15:31:03;29.00;71.60
8856;DHT22;4464;50.882;4.730;2023-09-30T15:33:32;28.70;71.90
8856;DHT22;4464;50.882;4.730;2023-09-30T15:36:00;27.70;74.10
8856;DHT22;4464;50.882;4.730;2023-09-30T15:38:36;27.30;74.50
8856;DHT22;4464;50.882;4.730;2023-09-30T15:41:01;26.30;75.90
8856;DHT22;4464;50.882;4.730;2023-09-30T15:43:30;25.70;76.00
8856;DHT22;4464;50.882;4.730;2023-09-30T15:45:56;25.20;77.00
8856;DHT22;4464;50.882;4.730;2023-09-30T15:48:23;24.40;78.50
8856;DHT22;4464;50.882;4.730;2023-09-30T15:50:52;24.00;80.00
8856;DHT22;4464;50.882;4.730;2023-09-30T15:53:19;23.60;81.10
8856;DHT22;4464;50.882;4.730;2023-09-30T15:55:49;23.10;82.40
8856;DHT22;4464;50.882;4.730;2023-09-30T15:58:14;23.50;83.40
8856;DHT22;4464;50.882;4.730;2023-09-30T16:00:41;23.70;83.40
8856;DHT22;4464;50.882;4.730;2023-09-30T16:03:10;24.00;82.60
8856;DHT22;4464;50.882;4.730;2023-09-30T16:05:39;23.90;82.50
8856;DHT22;4464;50.882;4.730;2023-09-30T16:08:08;23.80;83.40
8856;DHT22;4464;50.882;4.730;2023-09-30T16:10:38;23.80;83.60
8856;DHT22;4464;50.882;4.730;2023-09-30T16:13:07;24.10;83.40
8856;DHT22;4464;50.882;4.730;2023-09-30T16:15:34;24.60;83.40
8856;DHT22;4464;50.882;4.730;2023-09-30T16:18:00;25.20;81.80
8856;DHT22;4464;50.882;4.730;2023-09-30T16:20:26;25.20;81.30
8856;DHT22;4464;50.882;4.730;2023-09-30T16:22:52;25.00;80.60
8856;DHT22;4464;50.882;4.730;2023-09-30T16:25:21;24.80;79.10